Crawford, NE

12:40 AM MDT on May 26, 2015 (GMT -0600)
Chadron Municipal | | Change Station
CLOSE
Current Station
Airport
Location: Chadron,
Elevation: 3297 ft
Nearby Weather Stations

Elev 3297 ft 42.84 °N, 103.10 °W | Updated 30 minutes ago

Overcast
Overcast
55 °F
Feels Like 55 °F
N
4
Wind Variable Wind from North

Today
High -- | Low -- °F
--% Chance of Precip.
Yesterday
High -- | Low -- °F
Precip. -- in
5:22 AM 8:19 PM
First Quarter, 55% visible
Pressure 29.95 in
Visibility 10.0 miles
Clouds Mostly Cloudy 700 ft
Mostly Cloudy 1400 ft
Overcast 2000 ft
Dew Point 53 °F
Humidity 93%
Rainfall 0.00 in
Snow Depth Not available.
UV 0 out of 12
Pollen .90 out of 12
Air Quality Not available.
Flu Activity No Activity
SPECI KCDR 260610Z AUTO 36003KT 10SM BKN007 BKN014 OVC020 13/12 A2995 RMK AO2 RAB0559E09 CIG 006V010 P0000 T01280117 $

More Conditions Fewer Conditions

Pressure 29.95 in
Visibility 10.0 miles
Clouds Mostly Cloudy 700 ft
Mostly Cloudy 1400 ft
Overcast 2000 ft
Dew Point 53 °F
Humidity 93%
Rainfall 0.00 in
Snow Depth Not available.
UV 0 out of 12
Pollen .90 out of 12
Air Quality Not available.
Flu Activity No Activity
SPECI KCDR 260610Z AUTO 36003KT 10SM BKN007 BKN014 OVC020 13/12 A2995 RMK AO2 RAB0559E09 CIG 006V010 P0000 T01280117 $

More Conditions Fewer Conditions

10-Day Weather Forecast

Almanac

Astronomy

May. 26, 2015 Rise Set
Actual Time
Civil Twilight
Nautical Twilight
Astronomical Twilight
Moon
Length of Visible Light
Length of Day
Tomorrow will be .
, % of the Moon is Illuminated

Today's Extremes

State Highs State Lows

Community

WunderPhotos

Upload Photos

1,824,294 photos uploaded!

WunderBlogs® & News

Nearby

Air Quality

  Air Quality AQ Index Pollutant
Not available.

Snow Depth

Station Depth Elevation

Earthquake Activity

City Distance Mag. Time & Date
Minimum magnitude displayed is 2.5.

Coastal Water Temperatures

Place Temperature

Stations

Nearby Weather Stations

Station Location Temp. Windchill Dew Point Humidity Wind Precip. Elev Updated Type